Time;durP1;ratioP1;P1;durP2;ratioP2;P2;SDS_P1;SDS_P2;PMS_P1;PMS_P2;Temp;Humidity;BMP_temperature;BMP_pressure;BME280_temperature;BME280_humidity;BME280_pressure;Samples;Min_cycle;Max_cycle;Signal;HPM_P1;HPM_P2
2021/07/17 00:02:15;;;;;;;47.05;26.38;;;15.40;99.90;;;;;;4963259;28;20170;-75
2021/07/17 00:04:40;;;;;;;46.38;25.95;;;16.50;99.90;;;;;;4969295;28;20093;-74
2021/07/17 00:07:06;;;;;;;38.90;24.70;;;15.70;99.90;;;;;;4968535;28;20035;-75
2021/07/17 00:09:31;;;;;;;43.33;25.45;;;16.20;99.90;;;;;;4950672;28;20098;-74
2021/07/17 00:11:57;;;;;;;46.63;26.75;;;17.10;99.90;;;;;;4951569;28;20049;-74
2021/07/17 00:14:23;;;;;;;47.70;26.35;;;16.20;99.90;;;;;;4968140;28;20097;-74
2021/07/17 00:16:49;;;;;;;42.17;24.48;;;15.30;99.90;;;;;;4968960;28;20031;-74
2021/07/17 00:19:15;;;;;;;43.35;24.77;;;15.50;99.90;;;;;;4967847;28;20027;-74
2021/07/17 00:21:40;;;;;;;50.22;27.23;;;16.80;99.90;;;;;;4968471;28;20046;-74
2021/07/17 00:24:06;;;;;;;46.55;25.05;;;15.80;99.90;;;;;;4968725;28;20565;-74
2021/07/17 00:26:32;;;;;;;51.78;26.67;;;16.10;99.90;;;;;;4959056;28;20062;-74
2021/07/17 00:28:58;;;;;;;50.70;27.48;;;16.20;99.90;;;;;;4948584;29;20034;-74
2021/07/17 00:31:23;;;;;;;47.90;27.58;;;15.20;99.90;;;;;;4932053;29;20736;-74
2021/07/17 00:33:49;;;;;;;44.83;25.92;;;15.20;99.90;;;;;;4948879;28;20031;-74
2021/07/17 00:36:14;;;;;;;50.25;28.02;;;15.40;99.90;;;;;;4950306;28;20106;-74
2021/07/17 00:38:40;;;;;;;47.95;27.77;;;15.40;99.90;;;;;;4966559;28;20053;-74
2021/07/17 00:41:06;;;;;;;54.97;29.17;;;15.40;99.90;;;;;;4971954;28;20451;-74
2021/07/17 00:43:33;;;;;;;49.95;27.92;;;15.30;99.90;;;;;;4972070;28;20022;-74
2021/07/17 00:45:59;;;;;;;46.67;26.77;;;15.10;99.90;;;;;;4971716;28;20030;-75
2021/07/17 00:48:24;;;;;;;52.35;29.15;;;15.40;99.90;;;;;;4954862;28;20403;-75
2021/07/17 00:50:50;;;;;;;48.20;27.08;;;15.30;99.90;;;;;;4971156;28;20037;-75
2021/07/17 00:53:16;;;;;;;58.70;30.75;;;15.40;99.90;;;;;;4971609;28;20042;-75
2021/07/17 00:55:47;;;;;;;49.75;28.67;;;15.20;99.90;;;;;;4969992;28;20035;-74
2021/07/17 00:58:20;;;;;;;55.25;32.40;;;15.10;99.90;;;;;;4952462;29;20769;-75
2021/07/17 01:00:48;;;;;;;61.80;31.95;;;15.20;99.90;;;;;;4951630;29;20404;-75
2021/07/17 01:03:16;;;;;;;56.72;32.45;;;15.40;99.90;;;;;;4970679;28;20636;-75
2021/07/17 01:05:42;;;;;;;54.67;29.05;;;15.40;99.90;;;;;;4972092;28;20035;-75
2021/07/17 01:08:08;;;;;;;48.40;28.08;;;15.50;99.90;;;;;;4954176;28;20031;-75
2021/07/17 01:10:33;;;;;;;57.38;29.17;;;15.40;99.90;;;;;;4953945;28;20033;-75
2021/07/17 01:12:59;;;;;;;52.65;27.33;;;15.40;99.90;;;;;;4971349;28;20149;-75
2021/07/17 01:15:24;;;;;;;49.17;27.52;;;15.20;99.90;;;;;;4971034;28;20023;-75
2021/07/17 01:17:50;;;;;;;54.00;27.67;;;15.30;99.90;;;;;;4972019;28;20484;-75
2021/07/17 01:20:21;;;;;;;49.80;27.30;;;15.30;99.90;;;;;;4953496;28;20055;-75
2021/07/17 01:22:48;;;;;;;49.45;27.52;;;15.20;99.90;;;;;;4971027;28;20022;-75
2021/07/17 01:25:22;;;;;;;50.03;26.90;;;15.30;99.90;;;;;;4954496;28;20026;-75
2021/07/17 01:27:55;;;;;;;50.85;28.25;;;15.40;99.90;;;;;;4952175;28;20019;-75
2021/07/17 01:30:27;;;;;;;51.85;28.00;;;15.10;99.90;;;;;;4951084;28;20085;-75
2021/07/17 01:32:53;;;;;;;56.30;28.85;;;15.10;99.90;;;;;;4951709;28;20027;-75
2021/07/17 01:35:19;;;;;;;51.72;29.58;;;15.30;99.90;;;;;;4955966;28;20038;-75
2021/07/17 01:37:44;;;;;;;45.33;27.17;;;15.80;99.90;;;;;;4954463;28;20523;-75
2021/07/17 01:40:18;;;;;;;49.05;27.52;;;15.30;99.90;;;;;;4936931;28;20033;-75
2021/07/17 01:42:44;;;;;;;49.47;27.40;;;15.00;99.90;;;;;;4970578;28;20030;-74
2021/07/17 01:45:10;;;;;;;50.63;26.40;;;15.30;99.90;;;;;;4971191;28;20440;-75
2021/07/17 01:47:36;;;;;;;47.08;26.63;;;14.90;99.90;;;;;;4970090;28;20071;-76
2021/07/17 01:50:08;;;;;;;45.17;26.02;;;15.10;99.90;;;;;;4969921;28;20105;-76
2021/07/17 01:52:34;;;;;;;48.40;28.27;;;15.00;99.90;;;;;;4971248;28;20035;-76
2021/07/17 01:55:00;;;;;;;50.67;27.70;;;15.00;99.90;;;;;;4970479;28;20453;-76
2021/07/17 01:57:25;;;;;;;57.15;29.45;;;15.00;99.90;;;;;;4965420;28;20030;-76
2021/07/17 01:59:51;;;;;;;51.80;29.65;;;15.20;99.90;;;;;;4970361;28;20066;-76
2021/07/17 02:02:16;;;;;;;51.65;28.63;;;15.20;99.90;;;;;;4952646;28;20034;-76
2021/07/17 02:04:42;;;;;;;49.60;28.90;;;14.90;99.90;;;;;;4970860;28;20496;-76
2021/07/17 02:07:08;;;;;;;46.42;27.10;;;15.10;99.90;;;;;;4970486;28;20031;-76
2021/07/17 02:09:34;;;;;;;55.50;30.00;;;15.90;99.90;;;;;;4970581;28;20035;-76
2021/07/17 02:12:02;;;;;;;61.58;29.77;;;15.10;99.90;;;;;;4970766;28;20030;-76
2021/07/17 02:14:37;;;;;;;52.42;28.67;;;14.90;99.90;;;;;;4952812;28;20051;-76
2021/07/17 02:17:08;;;;;;;51.50;28.38;;;14.80;99.90;;;;;;4970286;28;20026;-76
2021/07/17 02:19:34;;;;;;;54.45;29.15;;;14.70;99.90;;;;;;4969813;28;20023;-76
2021/07/17 02:21:59;;;;;;;58.85;29.23;;;14.90;99.90;;;;;;4970428;28;20100;-76
2021/07/17 02:24:25;;;;;;;60.67;30.13;;;14.60;99.90;;;;;;4969779;28;20031;-76
2021/07/17 02:26:50;;;;;;;62.75;31.80;;;14.60;99.90;;;;;;4959227;28;20492;-76
2021/07/17 02:29:16;;;;;;;68.18;34.55;;;14.90;99.90;;;;;;4950061;29;20106;-76
2021/07/17 02:31:42;;;;;;;62.05;30.77;;;15.00;99.90;;;;;;4950749;29;20036;-76
2021/07/17 02:34:10;;;;;;;60.25;31.05;;;14.80;99.90;;;;;;4951264;28;20514;-76
2021/07/17 02:36:36;;;;;;;59.88;31.70;;;14.80;99.90;;;;;;4962863;28;20039;-76
2021/07/17 02:39:07;;;;;;;56.90;27.95;;;14.70;99.90;;;;;;4952009;28;20476;-76
2021/07/17 02:41:33;;;;;;;60.47;30.60;;;14.70;99.90;;;;;;4970377;28;20086;-76
2021/07/17 02:43:58;;;;;;;67.38;34.83;;;14.80;99.90;;;;;;4969485;28;20062;-76
2021/07/17 02:46:24;;;;;;;64.90;32.60;;;14.80;99.90;;;;;;4970144;28;20034;-76
2021/07/17 02:48:50;;;;;;;65.60;32.80;;;15.20;99.90;;;;;;4969388;28;20035;-76
2021/07/17 02:51:16;;;;;;;62.50;31.85;;;15.20;99.90;;;;;;4969019;28;20026;-76
2021/07/17 02:53:42;;;;;;;64.72;31.90;;;15.30;99.90;;;;;;4970244;28;20023;-76
2021/07/17 02:56:07;;;;;;;66.18;32.80;;;15.30;99.90;;;;;;4963512;28;20377;-76
2021/07/17 02:58:33;;;;;;;63.00;32.60;;;15.40;99.90;;;;;;4950000;29;20142;-76
2021/07/17 03:00:59;;;;;;;58.83;32.80;;;16.00;99.90;;;;;;4964222;28;20167;-76
2021/07/17 03:03:24;;;;;;;51.65;29.70;;;15.50;99.90;;;;;;4969353;28;20038;-76
2021/07/17 03:05:50;;;;;;;51.60;27.95;;;16.20;99.90;;;;;;4969897;28;20037;-76
2021/07/17 03:08:21;;;;;;;48.95;28.75;;;15.30;99.90;;;;;;4969471;28;20613;-76
2021/07/17 03:10:47;;;;;;;49.38;27.35;;;15.80;99.90;;;;;;4951243;28;20038;-76
2021/07/17 03:13:12;;;;;;;46.88;27.30;;;15.20;99.90;;;;;;4968866;28;20034;-76
2021/07/17 03:15:38;;;;;;;49.72;28.58;;;15.30;99.90;;;;;;4969495;28;20762;-76
2021/07/17 03:18:04;;;;;;;47.08;27.38;;;15.50;99.90;;;;;;4969064;28;20055;-76
2021/07/17 03:20:30;;;;;;;50.00;28.90;;;15.50;99.90;;;;;;4952003;28;20628;-74
2021/07/17 03:22:55;;;;;;;50.05;27.63;;;15.30;99.90;;;;;;4968984;28;20113;-74
2021/07/17 03:25:21;;;;;;;48.97;28.63;;;15.60;99.90;;;;;;4969008;28;20031;-74
2021/07/17 03:27:47;;;;;;;55.88;30.25;;;15.50;99.90;;;;;;4950247;28;20086;-74
2021/07/17 03:30:13;;;;;;;49.13;29.85;;;15.60;99.90;;;;;;4956560;28;20027;-76
2021/07/17 03:32:39;;;;;;;40.80;26.88;;;15.30;99.90;;;;;;5000793;23;20046;-78
2021/07/17 03:35:05;;;;;;;46.65;27.70;;;15.40;99.90;;;;;;4989214;28;20031;-78
2021/07/17 03:37:31;;;;;;;48.28;27.95;;;15.40;99.90;;;;;;4957179;28;20027;-79
2021/07/17 03:39:57;;;;;;;46.88;27.83;;;15.50;99.90;;;;;;4975123;28;20031;-77
2021/07/17 03:42:22;;;;;;;47.22;27.73;;;15.60;99.90;;;;;;4960743;28;20061;-80
2021/07/17 03:44:48;;;;;;;44.67;26.98;;;16.00;99.90;;;;;;4985286;28;20030;-76
2021/07/17 03:47:14;;;;;;;44.70;27.77;;;16.60;99.90;;;;;;4994952;28;20118;-80
2021/07/17 03:49:40;;;;;;;47.42;27.85;;;15.80;99.90;;;;;;4993746;28;20065;-80
2021/07/17 03:52:06;;;;;;;48.78;27.92;;;15.80;99.90;;;;;;4995320;28;20050;-79
2021/07/17 03:54:32;;;;;;;45.90;27.77;;;15.70;99.90;;;;;;4989719;28;20035;-80
2021/07/17 03:56:58;;;;;;;54.33;29.08;;;15.70;99.90;;;;;;4988176;28;20018;-76
2021/07/17 03:59:24;;;;;;;45.13;26.70;;;15.90;99.90;;;;;;4977321;28;20092;-79
2021/07/17 04:01:51;;;;;;;45.35;27.85;;;16.10;99.90;;;;;;4977415;28;20031;-79
2021/07/17 04:04:18;;;;;;;47.88;29.00;;;16.80;99.90;;;;;;4996194;28;20046;-79
2021/07/17 04:06:44;;;;;;;45.85;27.88;;;16.60;99.90;;;;;;4975824;28;20118;-78
2021/07/17 04:09:09;;;;;;;37.88;25.92;;;16.10;99.90;;;;;;4975347;28;20054;-80
2021/07/17 04:11:35;;;;;;;35.95;26.17;;;16.10;99.90;;;;;;4960436;28;20109;-79
2021/07/17 04:14:01;;;;;;;40.90;24.38;;;17.00;99.90;;;;;;4978248;28;20460;-80
2021/07/17 04:16:26;;;;;;;36.78;24.48;;;16.10;99.90;;;;;;4978063;28;20030;-78
2021/07/17 04:18:52;;;;;;;34.30;22.38;;;16.50;99.90;;;;;;4987542;28;20028;-78
2021/07/17 04:21:18;;;;;;;34.33;23.48;;;17.00;99.90;;;;;;4999417;28;20098;-80
2021/07/17 04:23:43;;;;;;;40.40;24.58;;;17.60;99.90;;;;;;4999084;28;20034;-80
2021/07/17 04:26:09;;;;;;;39.55;23.95;;;16.40;99.90;;;;;;4981438;28;20764;-80
2021/07/17 04:28:35;;;;;;;38.40;23.10;;;17.50;99.90;;;;;;4978430;28;20035;-77
2021/07/17 04:31:02;;;;;;;30.92;22.48;;;16.40;99.90;;;;;;4981115;28;20483;-79
2021/07/17 04:33:28;;;;;;;37.95;24.15;;;17.40;99.90;;;;;;4979497;28;20042;-81
2021/07/17 04:35:54;;;;;;;30.63;22.23;;;16.40;99.90;;;;;;4979943;28;20031;-79
2021/07/17 04:38:20;;;;;;;31.42;23.17;;;16.50;99.90;;;;;;4962372;28;20054;-81
2021/07/17 04:40:45;;;;;;;35.00;23.23;;;16.70;99.90;;;;;;4974087;28;20102;-81
2021/07/17 04:43:11;;;;;;;32.63;22.88;;;16.70;99.90;;;;;;4999626;28;20074;-81
2021/07/17 04:45:37;;;;;;;32.90;23.15;;;16.60;99.90;;;;;;4998687;28;20117;-78
2021/07/17 04:48:04;;;;;;;29.75;22.13;;;17.60;99.90;;;;;;4999496;28;20060;-78
2021/07/17 04:50:36;;;;;;;33.92;22.00;;;16.90;99.90;;;;;;4999505;28;20022;-81
2021/07/17 04:53:01;;;;;;;32.57;21.63;;;17.00;99.90;;;;;;4984141;28;20458;-79
2021/07/17 04:55:27;;;;;;;32.03;21.92;;;17.10;99.90;;;;;;4963281;28;20031;-77
2021/07/17 04:57:53;;;;;;;28.38;21.60;;;17.20;99.90;;;;;;5000416;28;20037;-80
2021/07/17 05:00:20;;;;;;;31.88;22.52;;;17.10;99.90;;;;;;4999227;28;20274;-81
2021/07/17 05:02:47;;;;;;;27.27;19.95;;;17.10;99.90;;;;;;4999282;28;20069;-77
2021/07/17 05:05:14;;;;;;;30.85;20.50;;;17.30;99.90;;;;;;4982391;28;20134;-81
2021/07/17 05:07:39;;;;;;;33.97;21.67;;;18.30;99.90;;;;;;4980693;28;20126;-79
2021/07/17 05:10:05;;;;;;;32.55;20.33;;;17.70;99.90;;;;;;4999198;28;20085;-79
2021/07/17 05:12:31;;;;;;;28.27;20.20;;;17.50;99.90;;;;;;4981209;28;20739;-81
2021/07/17 05:14:56;;;;;;;30.83;20.50;;;17.50;99.90;;;;;;4998810;28;20069;-81
2021/07/17 05:17:22;;;;;;;24.65;18.50;;;17.60;99.90;;;;;;4983815;28;20086;-80
2021/07/17 05:19:47;;;;;;;25.52;19.02;;;17.70;99.90;;;;;;4960612;28;20035;-81
2021/07/17 05:22:13;;;;;;;28.10;18.98;;;17.80;99.90;;;;;;4978113;28;20038;-77
2021/07/17 05:24:40;;;;;;;26.48;18.40;;;17.80;99.90;;;;;;4974522;28;20126;-79
2021/07/17 05:27:06;;;;;;;26.13;18.60;;;18.00;99.90;;;;;;4989841;28;20088;-79
2021/07/17 05:29:32;;;;;;;25.73;19.02;;;17.60;99.90;;;;;;4994139;28;20498;-79
2021/07/17 05:31:57;;;;;;;27.02;17.33;;;17.70;99.90;;;;;;4975585;28;20664;-77
2021/07/17 05:34:23;;;;;;;23.67;17.27;;;18.30;99.90;;;;;;4993072;28;20537;-79
2021/07/17 05:36:48;;;;;;;26.80;18.27;;;19.60;99.90;;;;;;4994311;28;20018;-80
2021/07/17 05:39:14;;;;;;;25.95;18.33;;;18.50;99.90;;;;;;4966632;28;20037;-79
2021/07/17 05:41:39;;;;;;;23.63;17.92;;;18.60;99.90;;;;;;4977473;28;20034;-80
2021/07/17 05:44:05;;;;;;;28.45;19.23;;;18.70;99.90;;;;;;4984733;28;20026;-78
2021/07/17 05:46:31;;;;;;;21.73;16.17;;;18.60;99.90;;;;;;4983757;28;20049;-79
2021/07/17 05:48:56;;;;;;;27.17;17.40;;;18.80;99.90;;;;;;4972805;28;20034;-79
2021/07/17 05:51:23;;;;;;;22.63;16.13;;;18.80;99.90;;;;;;4970639;28;20026;-78
2021/07/17 05:53:49;;;;;;;21.55;15.77;;;19.20;99.90;;;;;;4982393;28;20023;-80
2021/07/17 05:56:14;;;;;;;22.33;16.10;;;19.10;99.90;;;;;;4971053;28;20665;-80
2021/07/17 05:58:40;;;;;;;21.88;15.85;;;19.10;99.90;;;;;;4999096;28;20069;-80
2021/07/17 06:01:05;;;;;;;29.60;18.00;;;19.50;99.90;;;;;;5001067;28;20022;-80
2021/07/17 06:03:31;;;;;;;21.30;15.07;;;19.30;99.90;;;;;;4984130;28;20026;-80
2021/07/17 06:05:57;;;;;;;22.88;16.65;;;19.50;99.90;;;;;;5000544;28;20038;-80
2021/07/17 06:08:22;;;;;;;24.23;15.93;;;19.60;99.90;;;;;;5000377;28;20026;-80
2021/07/17 06:10:48;;;;;;;28.90;17.05;;;19.50;99.90;;;;;;4996528;28;20089;-80
2021/07/17 06:13:14;;;;;;;23.58;15.40;;;19.60;99.90;;;;;;4984927;28;20027;-81
2021/07/17 06:15:39;;;;;;;23.08;15.82;;;19.70;99.90;;;;;;4982511;28;20042;-80
2021/07/17 06:18:05;;;;;;;26.35;15.63;;;19.70;99.90;;;;;;4977487;28;20090;-80
2021/07/17 06:20:30;;;;;;;21.10;15.77;;;19.80;99.90;;;;;;4984418;28;20044;-80
2021/07/17 06:22:56;;;;;;;28.23;16.77;;;19.80;99.90;;;;;;4982154;28;20034;-80
2021/07/17 06:25:22;;;;;;;27.40;15.90;;;19.80;99.90;;;;;;4981310;28;20030;-79
2021/07/17 06:27:47;;;;;;;21.02;14.57;;;19.90;99.90;;;;;;4995506;28;20030;-78
2021/07/17 06:30:13;;;;;;;24.00;16.25;;;19.90;99.90;;;;;;4979402;28;20043;-79
2021/07/17 06:32:39;;;;;;;26.00;15.27;;;19.70;99.90;;;;;;4956814;28;20046;-78
2021/07/17 06:35:06;;;;;;;22.25;13.95;;;20.00;99.90;;;;;;4955330;28;20034;-79
2021/07/17 06:37:31;;;;;;;20.42;14.73;;;20.10;99.90;;;;;;4973075;28;20038;-81
2021/07/17 06:39:57;;;;;;;19.77;14.95;;;20.20;99.90;;;;;;4972833;28;20069;-80
2021/07/17 06:42:22;;;;;;;23.15;14.23;;;21.10;99.90;;;;;;4985719;28;20802;-80
2021/07/17 06:44:48;;;;;;;24.20;16.02;;;20.80;99.90;;;;;;4995372;28;20049;-80
2021/07/17 06:47:14;;;;;;;27.33;14.65;;;20.50;99.90;;;;;;4998919;28;20022;-80
2021/07/17 06:49:39;;;;;;;24.10;13.30;;;20.60;99.90;;;;;;4977973;28;20507;-80
2021/07/17 06:52:05;;;;;;;21.25;14.20;;;20.70;99.90;;;;;;4974987;28;20113;-80
2021/07/17 06:54:31;;;;;;;22.40;12.57;;;20.60;99.90;;;;;;4959002;28;20041;-80
2021/07/17 06:56:57;;;;;;;22.52;14.60;;;20.60;99.90;;;;;;5000078;28;20058;-80
2021/07/17 06:59:23;;;;;;;22.85;13.25;;;20.80;99.90;;;;;;4996475;28;20065;-81
2021/07/17 07:01:49;;;;;;;20.35;12.90;;;20.90;99.90;;;;;;5003582;28;20034;-81
2021/07/17 07:04:15;;;;;;;21.92;13.57;;;20.80;99.90;;;;;;4995820;28;20037;-81
2021/07/17 07:06:40;;;;;;;17.95;13.25;;;20.90;99.90;;;;;;4977833;28;20058;-80
2021/07/17 07:09:06;;;;;;;19.33;12.50;;;20.90;99.90;;;;;;4976865;28;20067;-80
2021/07/17 07:11:31;;;;;;;19.20;13.45;;;20.80;99.90;;;;;;4972705;28;20054;-81
2021/07/17 07:13:57;;;;;;;23.73;13.30;;;20.80;99.90;;;;;;4974742;28;20037;-80
2021/07/17 07:16:23;;;;;;;17.80;12.18;;;21.40;99.90;;;;;;4981649;28;20030;-78
2021/07/17 07:18:48;;;;;;;18.67;12.98;;;20.70;99.90;;;;;;4995368;28;20034;-78
2021/07/17 07:21:14;;;;;;;20.80;13.82;;;20.70;99.90;;;;;;4985634;28;20077;-80
2021/07/17 07:23:40;;;;;;;21.58;13.55;;;20.80;99.90;;;;;;4977740;28;20041;-79
2021/07/17 07:26:06;;;;;;;19.75;13.02;;;20.70;99.90;;;;;;4967253;28;20535;-82
2021/07/17 07:28:31;;;;;;;18.85;12.45;;;20.90;99.90;;;;;;4990610;28;20070;-81
2021/07/17 07:30:57;;;;;;;20.02;12.52;;;20.90;99.90;;;;;;4970077;28;20050;-80
2021/07/17 07:33:22;;;;;;;18.20;12.73;;;21.20;99.90;;;;;;4955014;28;20046;-80
2021/07/17 07:35:48;;;;;;;20.98;12.75;;;21.00;99.90;;;;;;4979827;28;20034;-79
2021/07/17 07:38:14;;;;;;;24.10;13.73;;;20.90;99.90;;;;;;4961724;28;20022;-79
2021/07/17 07:40:39;;;;;;;19.88;12.80;;;21.10;99.90;;;;;;4984754;28;20026;-80
2021/07/17 07:43:05;;;;;;;20.55;12.10;;;21.10;99.90;;;;;;4979919;28;20278;-80
2021/07/17 07:45:31;;;;;;;19.25;11.93;;;21.10;99.90;;;;;;4976765;28;20427;-80
2021/07/17 07:47:57;;;;;;;18.30;10.18;;;21.30;99.90;;;;;;4977865;28;20034;-80
2021/07/17 07:50:23;;;;;;;17.40;10.55;;;21.40;99.90;;;;;;4994304;28;20653;-80
2021/07/17 07:52:50;;;;;;;18.67;11.45;;;21.60;99.90;;;;;;4989497;28;20018;-80
2021/07/17 07:55:16;;;;;;;13.80;9.63;;;21.70;99.90;;;;;;4976924;28;20026;-80
2021/07/17 07:57:41;;;;;;;17.30;10.55;;;21.70;99.90;;;;;;4994797;28;20451;-81
2021/07/17 08:00:09;;;;;;;15.95;10.13;;;21.50;99.90;;;;;;4995685;28;20034;-81
2021/07/17 08:02:34;;;;;;;18.58;10.63;;;21.40;99.90;;;;;;4980243;28;20026;-78
2021/07/17 08:05:00;;;;;;;16.73;10.65;;;21.10;99.90;;;;;;4970866;28;20056;-79
2021/07/17 08:07:25;;;;;;;18.42;9.75;;;21.00;99.90;;;;;;4985196;28;20026;-80
2021/07/17 08:09:51;;;;;;;15.93;10.43;;;21.20;99.90;;;;;;4995307;28;20034;-80
2021/07/17 08:12:17;;;;;;;15.57;10.18;;;21.20;99.90;;;;;;4995583;28;20022;-80
2021/07/17 08:14:43;;;;;;;11.57;9.13;;;21.50;99.90;;;;;;4996210;28;20429;-80
2021/07/17 08:17:10;;;;;;;18.30;8.73;;;22.00;99.90;;;;;;4978979;28;20019;-81
2021/07/17 08:19:35;;;;;;;17.23;10.70;;;21.90;99.90;;;;;;4977800;28;20031;-81
2021/07/17 08:22:01;;;;;;;14.60;9.63;;;21.80;99.90;;;;;;4978761;28;20031;-82
2021/07/17 08:24:27;;;;;;;13.90;9.48;;;21.90;99.90;;;;;;4980825;28;20030;-81
2021/07/17 08:26:52;;;;;;;12.18;9.13;;;22.00;99.90;;;;;;5008408;28;20053;-80
2021/07/17 08:29:18;;;;;;;12.02;8.18;;;22.10;99.90;;;;;;5012193;28;20037;-82
2021/07/17 08:31:44;;;;;;;14.50;9.10;;;22.30;99.90;;;;;;4994766;28;20046;-80
2021/07/17 08:34:09;;;;;;;12.20;9.23;;;22.50;99.90;;;;;;4995908;28;20030;-80
2021/07/17 08:36:35;;;;;;;15.20;9.20;;;22.30;99.90;;;;;;4995632;28;20026;-81
2021/07/17 08:39:00;;;;;;;13.80;9.15;;;22.00;99.90;;;;;;4995795;28;20514;-81
2021/07/17 08:41:29;;;;;;;13.75;9.63;;;21.70;99.90;;;;;;4968342;28;20460;-81
2021/07/17 08:43:56;;;;;;;15.57;9.05;;;22.10;99.90;;;;;;4978182;28;20043;-80
2021/07/17 08:46:25;;;;;;;16.90;9.57;;;21.80;99.90;;;;;;4960537;28;20085;-81
2021/07/17 08:48:54;;;;;;;14.68;9.77;;;21.50;99.90;;;;;;4974681;28;20567;-81
2021/07/17 08:51:20;;;;;;;15.63;8.65;;;21.40;99.90;;;;;;4964153;28;20090;-80
2021/07/17 08:53:47;;;;;;;18.10;8.93;;;21.70;99.90;;;;;;4976546;28;20113;-79
2021/07/17 08:56:13;;;;;;;16.25;10.02;;;21.80;99.90;;;;;;4993254;28;20022;-82
2021/07/17 08:58:39;;;;;;;13.75;8.55;;;21.80;99.90;;;;;;5027312;28;20060;-80
2021/07/17 09:01:04;;;;;;;14.05;8.38;;;21.90;99.90;;;;;;5009152;28;20050;-81
2021/07/17 09:03:30;;;;;;;12.82;8.55;;;22.10;99.90;;;;;;5018153;28;20046;-82
2021/07/17 09:05:56;;;;;;;18.40;8.85;;;22.30;99.90;;;;;;4980595;28;20052;-82
2021/07/17 09:08:22;;;;;;;14.75;9.45;;;22.70;99.90;;;;;;4997273;28;20561;-82
2021/07/17 09:10:50;;;;;;;13.20;8.65;;;22.40;99.90;;;;;;4978652;28;20023;-78
2021/07/17 09:13:20;;;;;;;14.43;8.90;;;22.10;99.90;;;;;;4993414;28;20105;-81
2021/07/17 09:16:05;;;;;;;15.35;9.23;;;22.10;99.90;;;;;;4982822;28;20018;-79
2021/07/17 09:18:35;;;;;;;14.30;9.45;;;21.90;99.90;;;;;;4976407;28;20121;-80
2021/07/17 09:21:21;;;;;;;14.13;9.05;;;21.70;99.90;;;;;;4977470;28;20041;-82
2021/07/17 09:24:05;;;;;;;14.65;8.70;;;21.80;99.90;;;;;;4971478;28;20418;-81
2021/07/17 09:26:40;;;;;;;13.38;9.60;;;22.00;99.90;;;;;;4979773;28;20124;-81
2021/07/17 09:29:12;;;;;;;13.57;8.88;;;22.00;99.90;;;;;;4996381;28;20510;-80
2021/07/17 09:31:57;;;;;;;11.20;7.97;;;22.20;99.90;;;;;;4978765;28;20113;-82
2021/07/17 09:34:25;;;;;;;11.73;7.80;;;22.40;99.90;;;;;;4976066;28;20079;-80
2021/07/17 09:36:58;;;;;;;14.25;8.35;;;22.40;99.90;;;;;;4978360;28;20491;-81
2021/07/17 09:39:30;;;;;;;11.98;7.88;;;22.30;99.90;;;;;;4989464;28;20751;-81
2021/07/17 09:42:11;;;;;;;12.95;7.57;;;22.40;99.90;;;;;;5012993;28;20037;-81
2021/07/17 09:44:37;;;;;;;13.57;8.85;;;22.50;99.90;;;;;;5016312;28;20038;-81
2021/07/17 09:47:15;;;;;;;14.10;8.93;;;22.80;99.90;;;;;;5015842;28;20030;-82
2021/07/17 09:49:41;;;;;;;11.68;7.50;;;22.80;99.90;;;;;;5015601;28;20116;-81
2021/07/17 09:52:07;;;;;;;11.27;8.00;;;22.90;99.90;;;;;;5016291;28;20022;-81
2021/07/17 09:54:32;;;;;;;10.32;7.85;;;22.70;99.90;;;;;;5016119;28;20026;-81
2021/07/17 09:57:02;;;;;;;14.80;9.00;;;22.90;99.90;;;;;;4980636;28;20033;-82
2021/07/17 09:59:28;;;;;;;12.40;7.80;;;22.60;99.90;;;;;;4975686;28;20031;-81
2021/07/17 10:01:54;;;;;;;17.55;8.82;;;22.60;99.90;;;;;;4995134;28;20031;-80
2021/07/17 10:04:20;;;;;;;14.50;8.60;;;22.50;99.90;;;;;;4980397;28;20117;-80
2021/07/17 10:06:57;;;;;;;9.90;7.28;;;22.60;99.90;;;;;;4992608;28;20031;-80
2021/07/17 10:09:32;;;;;;;14.45;8.43;;;22.60;99.90;;;;;;4992840;28;20033;-81
2021/07/17 10:12:05;;;;;;;11.00;8.35;;;22.60;99.90;;;;;;4989585;28;20033;-81
2021/07/17 10:14:39;;;;;;;11.30;7.72;;;22.50;99.90;;;;;;4976349;28;20110;-81
2021/07/17 10:17:09;;;;;;;14.35;8.77;;;22.70;99.90;;;;;;4989447;28;20026;-82
2021/07/17 10:19:36;;;;;;;11.80;7.97;;;22.90;99.90;;;;;;4979118;28;20030;-81
2021/07/17 10:22:03;;;;;;;12.73;7.80;;;23.20;99.90;;;;;;4995632;28;20129;-81
2021/07/17 10:24:29;;;;;;;11.38;7.88;;;23.40;99.90;;;;;;4994333;28;20438;-81
2021/07/17 10:26:56;;;;;;;16.20;8.20;;;24.00;99.90;;;;;;4994610;28;20027;-79
2021/07/17 10:29:23;;;;;;;11.82;8.73;;;23.90;99.90;;;;;;4995453;28;20427;-80
2021/07/17 10:31:50;;;;;;;12.75;7.57;;;24.10;99.90;;;;;;4995938;28;20057;-80
2021/07/17 10:34:18;;;;;;;11.40;7.18;;;24.00;99.90;;;;;;4994613;28;20057;-81
2021/07/17 10:37:02;;;;;;;12.52;6.88;;;24.20;99.90;;;;;;4979095;28;20056;-80
2021/07/17 10:39:32;;;;;;;12.07;7.28;;;24.50;99.90;;;;;;4980910;28;20034;-81
2021/07/17 10:41:59;;;;;;;11.00;6.88;;;24.30;99.90;;;;;;4997984;28;20030;-80
2021/07/17 10:44:43;;;;;;;10.65;6.55;;;24.30;99.90;;;;;;4996768;28;20114;-81
2021/07/17 10:47:09;;;;;;;14.05;8.50;;;24.80;99.90;;;;;;4996832;28;20109;-81
2021/07/17 10:49:41;;;;;;;10.15;7.15;;;24.70;99.90;;;;;;4978575;28;20022;-80
2021/07/17 10:52:07;;;;;;;15.25;7.47;;;24.90;99.90;;;;;;4988921;28;20058;-79
2021/07/17 10:54:33;;;;;;;11.10;7.30;;;24.70;99.90;;;;;;4979430;28;20034;-81
2021/07/17 10:56:59;;;;;;;11.35;7.53;;;24.30;99.90;;;;;;4991834;28;20042;-81
2021/07/17 10:59:24;;;;;;;13.40;8.50;;;23.90;99.90;;;;;;4997617;28;20021;-80
2021/07/17 11:01:56;;;;;;;10.25;6.85;;;23.50;99.90;;;;;;4983760;28;20113;-82
2021/07/17 11:04:44;;;;;;;12.18;7.65;;;23.40;99.90;;;;;;5000563;28;20018;-80
2021/07/17 11:07:18;;;;;;;12.68;9.32;;;23.40;99.90;;;;;;4998833;28;20109;-82
2021/07/17 11:09:51;;;;;;;13.80;8.80;;;23.50;99.90;;;;;;4996773;28;20306;-81
2021/07/17 11:12:27;;;;;;;14.70;7.80;;;23.20;99.90;;;;;;4979397;28;20028;-80
2021/07/17 11:15:07;;;;;;;13.50;7.90;;;23.30;99.90;;;;;;4995686;28;20053;-81
2021/07/17 11:17:47;;;;;;;11.57;8.23;;;23.10;99.90;;;;;;4995452;28;20026;-81
2021/07/17 11:20:34;;;;;;;11.65;7.20;;;23.10;99.90;;;;;;4995919;28;20022;-82
2021/07/17 11:23:08;;;;;;;12.48;7.35;;;23.60;99.90;;;;;;4976705;28;20034;-81
2021/07/17 11:25:35;;;;;;;9.82;7.05;;;23.90;99.90;;;;;;4977420;28;20145;-81
2021/07/17 11:28:02;;;;;;;13.20;6.50;;;24.30;99.90;;;;;;4987289;28;20364;-81
2021/07/17 11:30:35;;;;;;;11.48;6.60;;;24.80;99.90;;;;;;4976206;28;20037;-81
2021/07/17 11:33:04;;;;;;;9.75;6.28;;;25.30;99.90;;;;;;4976992;28;20047;-80
2021/07/17 11:35:41;;;;;;;16.65;6.60;;;25.80;99.90;;;;;;4958729;28;20027;-80
2021/07/17 11:38:08;;;;;;;11.10;6.47;;;26.20;99.90;;;;;;4976254;28;20432;-82
2021/07/17 11:40:36;;;;;;;11.40;6.38;;;25.80;99.90;;;;;;4978567;28;20031;-81
2021/07/17 11:43:07;;;;;;;10.43;6.93;;;25.80;99.90;;;;;;4978617;28;20023;-81
2021/07/17 11:45:33;;;;;;;11.47;7.60;;;25.50;99.90;;;;;;4976597;28;20519;-82
2021/07/17 11:48:13;;;;;;;8.98;6.55;;;25.10;99.90;;;;;;4975811;28;20050;-81
2021/07/17 11:50:40;;;;;;;8.68;6.50;;;24.90;99.90;;;;;;4977722;28;20066;-82
2021/07/17 11:53:17;;;;;;;12.60;7.40;;;24.70;99.90;;;;;;4976809;28;20042;-81
2021/07/17 11:55:43;;;;;;;14.23;8.27;;;24.60;99.90;;;;;;4978883;28;20053;-82
2021/07/17 11:58:16;;;;;;;11.13;7.05;;;24.60;99.90;;;;;;4977689;28;20483;-82
2021/07/17 12:00:43;;;;;;;16.48;11.00;;;24.90;99.90;;;;;;4947030;28;20117;-81
2021/07/17 12:03:09;;;;;;;11.20;7.53;;;25.70;99.90;;;;;;4997386;28;20113;-78
2021/07/17 12:05:34;;;;;;;10.07;7.00;;;26.40;99.90;;;;;;4997979;28;20034;-81
2021/07/17 12:08:01;;;;;;;10.07;6.53;;;26.90;99.90;;;;;;4978072;28;20074;-80
2021/07/17 12:10:28;;;;;;;15.57;7.03;;;26.20;99.90;;;;;;4979893;28;20077;-83
2021/07/17 12:12:56;;;;;;;15.30;8.63;;;26.20;99.90;;;;;;4978896;28;20026;-80
2021/07/17 12:15:23;;;;;;;11.18;6.57;;;26.00;99.90;;;;;;4996469;28;20073;-83
2021/07/17 12:17:48;;;;;;;10.15;6.28;;;25.70;99.90;;;;;;4997104;28;20041;-82
2021/07/17 12:20:41;;;;;;;14.15;6.82;;;26.00;99.90;;;;;;4970016;23;20134;-74
2021/07/17 12:23:11;;;;;;;12.05;6.15;;;26.00;99.90;;;;;;4968981;28;20118;-73
2021/07/17 12:25:47;;;;;;;8.57;6.35;;;26.10;99.90;;;;;;4972386;28;20109;-73
2021/07/17 12:28:19;;;;;;;10.68;7.53;;;25.70;99.90;;;;;;4972299;28;20049;-73
2021/07/17 12:30:46;;;;;;;15.65;10.73;;;25.70;99.90;;;;;;4971218;28;20050;-73
2021/07/17 12:33:21;;;;;;;15.18;8.52;;;26.00;99.90;;;;;;4974578;28;20438;-73